createdAt,value
2023-01-29T00:00:36.460Z,23.47
2023-01-29T00:03:03.289Z,23.40
2023-01-29T00:05:29.941Z,24.33
2023-01-29T00:07:57.055Z,24.10
2023-01-29T00:10:25.615Z,23.30
2023-01-29T00:12:52.869Z,22.17
2023-01-29T00:15:20.503Z,22.27
2023-01-29T00:17:47.083Z,21.40
2023-01-29T00:20:13.922Z,20.50
2023-01-29T00:22:40.784Z,22.47
2023-01-29T00:25:08.155Z,22.27
2023-01-29T00:27:34.800Z,22.33
2023-01-29T00:30:12.880Z,22.53
2023-01-29T00:32:40.758Z,22.77
2023-01-29T00:35:08.537Z,23.77
2023-01-29T00:37:35.367Z,23.53
2023-01-29T00:40:01.967Z,24.40
2023-01-29T00:42:47.111Z,23.37
2023-01-29T00:45:13.870Z,24.40
2023-01-29T00:47:40.441Z,22.40
2023-01-29T00:50:10.904Z,23.47
2023-01-29T00:52:37.560Z,22.87
2023-01-29T00:55:05.731Z,24.20
2023-01-29T00:57:34.543Z,21.10
2023-01-29T01:00:01.931Z,22.43
2023-01-29T01:02:47.523Z,23.47
2023-01-29T01:05:19.771Z,20.47
2023-01-29T01:07:52.557Z,22.27
2023-01-29T01:10:25.259Z,22.57
2023-01-29T01:12:56.717Z,22.20
2023-01-29T01:15:25.641Z,22.73
2023-01-29T01:17:57.723Z,21.97
2023-01-29T01:20:26.318Z,22.37
2023-01-29T01:22:56.435Z,22.70
2023-01-29T01:25:27.302Z,24.33
2023-01-29T01:27:55.176Z,23.70
2023-01-29T01:30:23.112Z,22.87
2023-01-29T01:32:50.122Z,23.53
2023-01-29T01:35:17.039Z,26.97
2023-01-29T01:37:43.589Z,27.23
2023-01-29T01:40:19.259Z,27.77
2023-01-29T01:42:55.677Z,27.13
2023-01-29T01:45:32.593Z,26.43
2023-01-29T01:48:23.819Z,26.23
2023-01-29T01:50:56.621Z,24.37
2023-01-29T01:53:34.596Z,24.97
2023-01-29T01:56:05.948Z,23.77
2023-01-29T01:58:37.008Z,24.30
2023-01-29T02:01:09.378Z,24.47
2023-01-29T02:04:13.722Z,23.00
2023-01-29T02:06:59.801Z,22.27
2023-01-29T02:09:39.527Z,22.47
2023-01-29T02:12:13.091Z,24.50
2023-01-29T02:14:41.418Z,23.67
2023-01-29T02:17:14.260Z,23.83
2023-01-29T02:20:11.467Z,25.13
2023-01-29T02:22:57.100Z,24.47
2023-01-29T02:25:42.550Z,25.20
2023-01-29T02:28:49.016Z,24.60
2023-01-29T02:31:34.976Z,25.67
2023-01-29T02:34:14.855Z,24.53
2023-01-29T02:36:50.706Z,24.20
2023-01-29T02:39:47.411Z,24.67
2023-01-29T02:42:35.919Z,25.57
2023-01-29T02:45:12.658Z,25.73
2023-01-29T02:47:58.603Z,23.93
2023-01-29T02:50:47.731Z,24.77
2023-01-29T02:53:18.975Z,26.03
2023-01-29T02:56:07.451Z,25.90
2023-01-29T02:58:43.018Z,24.70
2023-01-29T03:01:33.012Z,29.20
2023-01-29T03:04:06.200Z,25.83
2023-01-29T03:06:40.821Z,26.10
2023-01-29T03:09:09.864Z,25.17
2023-01-29T03:11:42.063Z,26.63
2023-01-29T03:14:53.057Z,26.43
2023-01-29T03:17:25.743Z,24.23
2023-01-29T03:19:52.558Z,24.17
2023-01-29T03:22:22.031Z,25.43
2023-01-29T03:25:12.325Z,24.20
2023-01-29T03:28:04.791Z,24.90
2023-01-29T03:30:55.311Z,23.77
2023-01-29T03:33:26.476Z,23.03
2023-01-29T03:36:02.554Z,24.73
2023-01-29T03:38:31.948Z,24.60
2023-01-29T03:41:12.038Z,22.10
2023-01-29T03:43:54.327Z,23.27
2023-01-29T03:46:36.403Z,23.07
2023-01-29T03:49:09.105Z,23.07
2023-01-29T03:51:49.415Z,18.63
2023-01-29T03:54:26.479Z,24.43
2023-01-29T03:57:16.301Z,23.70
2023-01-29T04:00:01.181Z,20.87
2023-01-29T04:02:32.523Z,23.10
2023-01-29T04:05:12.155Z,23.77
2023-01-29T04:07:41.891Z,17.97
2023-01-29T04:10:15.954Z,22.10
2023-01-29T04:12:48.515Z,24.67
2023-01-29T04:15:17.657Z,22.70
2023-01-29T04:17:50.752Z,25.73
2023-01-29T04:20:17.998Z,25.90
2023-01-29T04:22:51.775Z,24.37
2023-01-29T04:25:28.997Z,24.20
2023-01-29T04:27:55.616Z,24.67
2023-01-29T04:30:54.764Z,26.43
2023-01-29T04:33:58.215Z,25.33
2023-01-29T04:36:41.580Z,20.37
2023-01-29T04:39:19.346Z,25.40
2023-01-29T04:42:04.711Z,25.77
2023-01-29T04:44:50.922Z,26.13
2023-01-29T04:47:27.062Z,26.40
2023-01-29T04:50:23.952Z,25.80
2023-01-29T04:53:07.295Z,25.57
2023-01-29T04:55:48.609Z,25.07
2023-01-29T04:58:56.867Z,25.97
2023-01-29T05:01:29.881Z,25.97
2023-01-29T05:03:58.352Z,25.30
2023-01-29T05:06:26.540Z,25.57
2023-01-29T05:08:55.278Z,24.93
2023-01-29T05:11:23.748Z,22.37
2023-01-29T05:13:51.020Z,26.70
2023-01-29T05:16:42.932Z,26.07
2023-01-29T05:19:13.923Z,23.30
2023-01-29T05:21:43.844Z,23.60
2023-01-29T05:24:17.712Z,24.77
2023-01-29T05:27:05.396Z,25.40
2023-01-29T05:29:32.132Z,25.47
2023-01-29T05:31:58.867Z,24.60
2023-01-29T05:34:25.689Z,26.27
2023-01-29T05:36:52.330Z,23.00
2023-01-29T05:39:18.904Z,42.83
2023-01-29T05:41:45.451Z,26.90
2023-01-29T05:44:12.297Z,26.67
2023-01-29T05:46:39.363Z,27.07
2023-01-29T05:49:06.455Z,27.33
2023-01-29T05:51:33.536Z,27.37
2023-01-29T05:54:00.083Z,27.57
2023-01-29T05:56:26.710Z,26.10
2023-01-29T05:58:53.284Z,26.23
2023-01-29T06:01:25.830Z,29.13
2023-01-29T06:03:52.442Z,26.27
2023-01-29T06:06:19.138Z,26.63
2023-01-29T06:08:45.944Z,27.57
2023-01-29T06:11:13.701Z,27.60
2023-01-29T06:13:40.649Z,27.10
2023-01-29T06:16:08.723Z,27.03
2023-01-29T06:18:36.025Z,27.87
2023-01-29T06:21:04.060Z,27.90
2023-01-29T06:23:31.086Z,27.30
2023-01-29T06:26:02.577Z,27.23
2023-01-29T06:28:29.328Z,58.37
2023-01-29T06:31:21.067Z,37.57
2023-01-29T06:33:49.762Z,28.37
2023-01-29T06:36:16.505Z,28.80
2023-01-29T06:38:43.088Z,27.80
2023-01-29T06:41:12.393Z,28.23
2023-01-29T06:43:39.999Z,26.97
2023-01-29T06:46:08.221Z,28.90
2023-01-29T06:48:35.230Z,33.40
2023-01-29T06:51:03.427Z,28.27
2023-01-29T06:53:30.336Z,28.67
2023-01-29T06:55:56.933Z,29.30
2023-01-29T06:58:23.463Z,29.57
2023-01-29T07:00:50.132Z,28.87
2023-01-29T07:03:16.894Z,28.30
2023-01-29T07:05:43.650Z,29.73
2023-01-29T07:08:10.171Z,29.27
2023-01-29T07:10:36.736Z,28.10
2023-01-29T07:13:03.316Z,29.57
2023-01-29T07:15:29.904Z,28.03
2023-01-29T07:17:57.495Z,28.77
2023-01-29T07:20:26.374Z,29.00
2023-01-29T07:22:53.100Z,28.37
2023-01-29T07:25:21.006Z,28.73
2023-01-29T07:27:47.856Z,29.93
2023-01-29T07:30:15.013Z,28.50
2023-01-29T07:32:41.916Z,28.60
2023-01-29T07:35:09.040Z,29.43
2023-01-29T07:37:35.638Z,29.43
2023-01-29T07:40:02.278Z,29.07
2023-01-29T07:42:28.799Z,27.50
2023-01-29T07:44:55.458Z,29.23
2023-01-29T07:47:22.028Z,29.23
2023-01-29T07:49:48.796Z,29.90
2023-01-29T07:52:15.401Z,27.90
2023-01-29T07:54:42.095Z,28.57
2023-01-29T07:57:08.785Z,28.13
2023-01-29T07:59:35.336Z,49.10
2023-01-29T08:02:01.905Z,30.40
2023-01-29T08:04:28.572Z,30.10
2023-01-29T08:06:55.153Z,30.30
2023-01-29T08:09:21.701Z,29.57
2023-01-29T08:11:48.281Z,30.67
2023-01-29T08:14:14.911Z,30.70
2023-01-29T08:16:41.565Z,30.43
2023-01-29T08:19:08.178Z,30.63
2023-01-29T08:21:34.752Z,32.23
2023-01-29T08:26:32.969Z,27.40
2023-01-29T08:28:59.656Z,31.90
2023-01-29T08:31:26.276Z,31.33
2023-01-29T08:33:54.878Z,31.33
2023-01-29T08:36:21.592Z,30.73
2023-01-29T08:38:48.176Z,30.80
2023-01-29T08:41:14.736Z,32.47
2023-01-29T08:43:41.349Z,32.07
2023-01-29T08:46:08.882Z,30.40
2023-01-29T08:48:35.498Z,30.37
2023-01-29T08:51:02.996Z,32.10
2023-01-29T08:53:29.697Z,31.70
2023-01-29T08:55:56.363Z,29.97
2023-01-29T08:58:22.970Z,30.73
2023-01-29T09:00:49.606Z,30.80
2023-01-29T09:03:16.518Z,30.90
2023-01-29T09:05:43.150Z,30.43
2023-01-29T09:08:10.281Z,29.87
2023-01-29T09:10:36.972Z,30.47
2023-01-29T09:13:05.054Z,30.97
2023-01-29T09:15:31.708Z,30.23
2023-01-29T09:17:58.272Z,31.10
2023-01-29T09:20:24.833Z,30.30
2023-01-29T09:22:53.680Z,29.40
2023-01-29T09:25:20.586Z,30.13
2023-01-29T09:27:47.117Z,30.47
2023-01-29T09:30:14.255Z,34.40
2023-01-29T09:32:53.322Z,31.10
2023-01-29T09:35:23.923Z,31.50
2023-01-29T09:37:51.834Z,30.90
2023-01-29T09:40:24.870Z,31.77
2023-01-29T09:42:57.965Z,29.27
2023-01-29T09:45:28.191Z,30.47
2023-01-29T09:47:59.293Z,30.67
2023-01-29T09:50:43.589Z,31.60
2023-01-29T09:53:40.548Z,30.90
2023-01-29T09:56:14.493Z,31.87
2023-01-29T09:58:43.177Z,31.00
2023-01-29T10:01:12.774Z,33.03
2023-01-29T10:03:58.089Z,31.07
2023-01-29T10:06:31.420Z,31.30
2023-01-29T10:09:30.312Z,33.23
2023-01-29T10:12:24.765Z,31.60
2023-01-29T10:15:12.053Z,32.10
2023-01-29T10:18:17.435Z,30.83
2023-01-29T10:21:08.514Z,33.97
2023-01-29T10:23:40.692Z,35.43
2023-01-29T10:26:12.707Z,37.03
2023-01-29T10:28:50.211Z,31.83
2023-01-29T10:31:21.090Z,31.97
2023-01-29T10:34:01.975Z,31.40
2023-01-29T10:36:49.862Z,33.47
2023-01-29T10:39:21.428Z,31.13
2023-01-29T10:42:24.812Z,32.50
2023-01-29T10:45:13.127Z,30.60
2023-01-29T10:48:04.336Z,31.67
2023-01-29T10:50:45.478Z,34.53
2023-01-29T10:53:20.859Z,31.23
2023-01-29T10:56:17.410Z,31.90
2023-01-29T10:58:52.212Z,31.67
2023-01-29T11:01:18.790Z,31.50
2023-01-29T11:03:45.351Z,31.93
2023-01-29T11:06:30.994Z,33.17
2023-01-29T11:09:23.188Z,30.87
2023-01-29T11:11:57.710Z,30.13
2023-01-29T11:14:29.997Z,31.43
2023-01-29T11:16:56.928Z,31.63
2023-01-29T11:19:41.223Z,32.77
2023-01-29T11:22:26.231Z,32.20
2023-01-29T11:25:11.427Z,33.17
2023-01-29T11:27:47.799Z,35.20
2023-01-29T11:30:37.375Z,33.23
2023-01-29T11:33:32.984Z,38.43
2023-01-29T11:36:00.260Z,37.40
2023-01-29T11:38:29.071Z,33.97
2023-01-29T11:41:06.670Z,68.13
2023-01-29T11:43:33.994Z,33.90
2023-01-29T11:46:05.209Z,36.40
2023-01-29T11:48:48.002Z,33.70
2023-01-29T11:51:25.498Z,32.40
2023-01-29T11:53:58.176Z,33.87
2023-01-29T11:56:29.706Z,33.73
2023-01-29T11:58:58.692Z,33.07
2023-01-29T12:01:34.249Z,33.50
2023-01-29T12:04:01.807Z,34.43
2023-01-29T12:06:37.929Z,33.53
2023-01-29T12:09:17.005Z,34.20
2023-01-29T12:11:43.661Z,31.23
2023-01-29T12:14:33.508Z,32.87
2023-01-29T12:17:08.632Z,35.70
2023-01-29T12:19:38.272Z,34.00
2023-01-29T12:22:11.019Z,31.63
2023-01-29T12:24:53.908Z,33.43
2023-01-29T12:27:46.302Z,30.67
2023-01-29T12:30:23.705Z,32.43
2023-01-29T12:32:50.284Z,32.63
2023-01-29T12:35:25.618Z,33.67
2023-01-29T12:38:01.048Z,32.73
2023-01-29T12:40:33.800Z,33.23
2023-01-29T12:43:15.025Z,32.80
2023-01-29T12:45:45.027Z,31.37
2023-01-29T12:48:19.361Z,30.97
2023-01-29T12:50:47.639Z,29.70
2023-01-29T12:53:54.714Z,37.00
2023-01-29T12:56:32.883Z,32.57
2023-01-29T12:59:04.782Z,33.17
2023-01-29T13:01:45.375Z,29.50
2023-01-29T13:04:19.496Z,30.30
2023-01-29T13:06:52.652Z,32.63
2023-01-29T13:09:33.398Z,34.47
2023-01-29T13:12:04.511Z,33.03
2023-01-29T13:14:55.203Z,33.80
2023-01-29T13:17:32.984Z,34.30
2023-01-29T13:20:05.257Z,32.03
2023-01-29T13:22:39.370Z,32.50
2023-01-29T13:25:06.783Z,31.97
2023-01-29T13:27:35.070Z,31.40
2023-01-29T13:30:02.205Z,31.43
2023-01-29T13:32:34.949Z,31.90
2023-01-29T13:35:12.983Z,32.60
2023-01-29T13:37:52.151Z,32.30
2023-01-29T13:40:26.921Z,32.10
2023-01-29T13:42:57.264Z,33.50
2023-01-29T13:45:45.720Z,31.10
2023-01-29T13:48:32.591Z,32.17
2023-01-29T13:51:04.702Z,33.73
2023-01-29T13:53:40.875Z,32.93
2023-01-29T13:56:29.209Z,30.07
2023-01-29T13:58:56.976Z,32.50
2023-01-29T14:01:48.425Z,33.03
2023-01-29T14:04:25.455Z,33.13
2023-01-29T14:06:54.619Z,32.27
2023-01-29T14:09:50.159Z,31.57
2023-01-29T14:12:22.493Z,33.20
2023-01-29T14:14:49.146Z,31.47
2023-01-29T14:17:17.813Z,31.27
2023-01-29T14:19:53.335Z,32.57
2023-01-29T14:22:22.819Z,32.23
2023-01-29T14:24:55.810Z,33.37
2023-01-29T14:27:27.602Z,31.53
2023-01-29T14:30:03.822Z,30.70
2023-01-29T14:32:30.494Z,32.13
2023-01-29T14:35:04.964Z,31.43
2023-01-29T14:37:35.419Z,30.77
2023-01-29T14:40:19.797Z,30.87
2023-01-29T14:43:19.967Z,31.70
2023-01-29T14:45:50.077Z,30.87
2023-01-29T14:48:45.735Z,30.37
2023-01-29T14:51:17.932Z,29.03
2023-01-29T14:54:13.868Z,28.70
2023-01-29T14:56:47.771Z,27.70
2023-01-29T14:59:21.046Z,30.90
2023-01-29T15:01:54.297Z,30.17
2023-01-29T15:04:26.160Z,30.70
2023-01-29T15:07:05.190Z,28.40
2023-01-29T15:09:42.388Z,29.63
2023-01-29T15:12:33.407Z,29.63
2023-01-29T15:14:59.930Z,28.27
2023-01-29T15:17:32.782Z,29.53
2023-01-29T15:19:59.403Z,29.20
2023-01-29T15:22:26.202Z,28.13
2023-01-29T15:25:21.721Z,28.37
2023-01-29T15:27:48.963Z,28.10
2023-01-29T15:30:22.304Z,27.77
2023-01-29T15:32:49.533Z,29.43
2023-01-29T15:35:19.513Z,28.13
2023-01-29T15:38:01.145Z,31.80
2023-01-29T15:40:27.758Z,28.33
2023-01-29T15:42:54.369Z,29.83
2023-01-29T15:45:31.932Z,31.10
2023-01-29T15:48:03.798Z,30.57
2023-01-29T15:50:32.833Z,33.00
2023-01-29T15:53:03.768Z,30.87
2023-01-29T15:55:31.857Z,33.87
2023-01-29T15:57:59.726Z,33.00
2023-01-29T16:00:29.782Z,36.70
2023-01-29T16:03:01.492Z,29.30
2023-01-29T16:05:30.729Z,29.07
2023-01-29T16:07:59.291Z,30.03
2023-01-29T16:10:32.704Z,28.87
2023-01-29T16:13:02.642Z,28.93
2023-01-29T16:15:37.939Z,27.53
2023-01-29T16:18:23.799Z,27.17
2023-01-29T16:20:53.873Z,27.60
2023-01-29T16:23:25.664Z,29.33
2023-01-29T16:28:46.515Z,28.47
2023-01-29T16:31:20.807Z,28.53
2023-01-29T16:33:49.543Z,30.20
2023-01-29T16:36:21.822Z,32.63
2023-01-29T16:39:00.601Z,30.90
2023-01-29T16:41:32.212Z,30.63
2023-01-29T16:44:17.171Z,28.70
2023-01-29T16:46:48.715Z,29.13
2023-01-29T16:49:30.522Z,28.63
2023-01-29T16:52:15.427Z,33.27
2023-01-29T16:54:43.347Z,32.47
2023-01-29T16:57:26.254Z,37.13
2023-01-29T16:59:59.073Z,37.97
2023-01-29T17:02:35.519Z,24.23
2023-01-29T17:05:06.121Z,24.87
2023-01-29T17:07:34.334Z,24.70
2023-01-29T17:10:04.382Z,24.30
2023-01-29T17:12:32.099Z,22.67
2023-01-29T17:15:05.844Z,24.30
2023-01-29T17:17:35.838Z,45.50
2023-01-29T17:20:23.000Z,23.93
2023-01-29T17:22:49.688Z,23.90
2023-01-29T17:25:18.654Z,25.57
2023-01-29T17:27:51.576Z,25.70
2023-01-29T17:30:21.442Z,24.70
2023-01-29T17:32:48.175Z,24.57
2023-01-29T17:35:17.495Z,25.23
2023-01-29T17:37:44.407Z,26.53
2023-01-29T17:40:31.470Z,26.17
2023-01-29T17:42:58.146Z,25.77
2023-01-29T17:45:24.823Z,27.47
2023-01-29T17:47:51.507Z,29.37
2023-01-29T17:50:31.822Z,26.87
2023-01-29T17:52:58.645Z,53.33
2023-01-29T17:55:25.374Z,31.63
2023-01-29T17:57:51.868Z,34.90
2023-01-29T18:00:21.990Z,30.10
2023-01-29T18:02:49.176Z,25.70
2023-01-29T18:05:17.251Z,29.10
2023-01-29T18:07:47.086Z,24.90
2023-01-29T18:10:18.548Z,37.10
2023-01-29T18:12:45.514Z,26.20
2023-01-29T18:15:13.209Z,28.07
2023-01-29T18:17:40.434Z,24.27
2023-01-29T18:20:23.457Z,23.27
2023-01-29T18:22:50.190Z,21.30
2023-01-29T18:25:17.426Z,20.43
2023-01-29T18:27:44.647Z,21.87
2023-01-29T18:30:12.736Z,20.53
2023-01-29T18:32:39.281Z,18.90
2023-01-29T18:35:06.663Z,21.70
2023-01-29T18:37:33.791Z,22.00
2023-01-29T18:40:00.391Z,21.00
2023-01-29T18:42:26.922Z,21.93
2023-01-29T18:44:55.571Z,20.90
2023-01-29T18:47:23.633Z,19.27
2023-01-29T18:49:51.893Z,19.47
2023-01-29T18:52:18.659Z,19.10
2023-01-29T18:54:45.197Z,19.93
2023-01-29T18:57:11.706Z,18.03
2023-01-29T18:59:40.876Z,20.60
2023-01-29T19:02:08.072Z,19.00
2023-01-29T19:04:34.632Z,18.53
2023-01-29T19:07:01.281Z,16.80
2023-01-29T19:09:27.807Z,17.03
2023-01-29T19:11:54.349Z,14.77
2023-01-29T19:14:21.029Z,14.67
2023-01-29T19:16:47.710Z,15.57
2023-01-29T19:19:14.258Z,15.60
2023-01-29T19:21:40.814Z,15.67
2023-01-29T19:24:10.032Z,14.93
2023-01-29T19:26:36.668Z,18.43
2023-01-29T19:29:04.273Z,17.30
2023-01-29T19:31:32.016Z,16.50
2023-01-29T19:33:58.872Z,18.90
2023-01-29T19:36:25.837Z,17.83
2023-01-29T19:38:52.358Z,17.80
2023-01-29T19:41:19.023Z,18.07
2023-01-29T19:43:46.415Z,18.80
2023-01-29T19:46:13.008Z,20.20
2023-01-29T19:48:39.600Z,20.70
2023-01-29T19:51:10.442Z,21.33
2023-01-29T19:53:39.055Z,21.40
2023-01-29T19:56:08.386Z,22.30
2023-01-29T19:58:38.992Z,22.37
2023-01-29T20:01:14.912Z,24.00
2023-01-29T20:03:42.175Z,22.47
2023-01-29T20:06:08.922Z,23.30
2023-01-29T20:08:36.009Z,23.87
2023-01-29T20:11:03.152Z,24.07
2023-01-29T20:13:29.907Z,24.70
2023-01-29T20:15:56.716Z,23.90
2023-01-29T20:18:23.501Z,23.27
2023-01-29T20:20:52.993Z,23.43
2023-01-29T20:23:36.641Z,25.03
2023-01-29T20:26:04.199Z,24.13
2023-01-29T20:28:30.883Z,23.10
2023-01-29T20:30:58.929Z,21.73
2023-01-29T20:33:26.122Z,21.60
2023-01-29T20:35:57.656Z,21.93
2023-01-29T20:38:26.079Z,23.60
2023-01-29T20:40:52.640Z,23.77
2023-01-29T20:43:19.169Z,21.43
2023-01-29T20:45:45.816Z,22.80
2023-01-29T20:48:12.567Z,23.07
2023-01-29T20:50:39.192Z,24.33
2023-01-29T20:53:06.593Z,21.07
2023-01-29T20:55:33.355Z,24.47
2023-01-29T20:58:05.083Z,27.90
2023-01-29T21:00:33.787Z,24.30
2023-01-29T21:03:00.587Z,24.30
2023-01-29T21:05:27.165Z,28.10
2023-01-29T21:07:53.836Z,25.07
2023-01-29T21:10:20.439Z,24.33
2023-01-29T21:12:47.183Z,19.93
2023-01-29T21:15:15.204Z,22.07
2023-01-29T21:17:41.751Z,21.57
2023-01-29T21:20:09.852Z,21.20
2023-01-29T21:22:36.641Z,22.13
2023-01-29T21:25:03.385Z,23.23
2023-01-29T21:27:29.984Z,21.27
2023-01-29T21:29:57.229Z,22.43
2023-01-29T21:32:23.891Z,22.57
2023-01-29T21:34:52.654Z,23.97
2023-01-29T21:37:19.386Z,21.33
2023-01-29T21:39:46.148Z,22.43
2023-01-29T21:42:31.292Z,21.20
2023-01-29T21:44:57.913Z,19.83
2023-01-29T21:47:24.600Z,21.83
2023-01-29T21:49:51.341Z,22.20
2023-01-29T21:52:17.871Z,25.10
2023-01-29T21:54:49.050Z,22.87
2023-01-29T21:57:16.615Z,20.73
2023-01-29T21:59:44.101Z,20.07
2023-01-29T22:02:15.276Z,24.40
2023-01-29T22:04:42.750Z,22.47
2023-01-29T22:07:10.856Z,23.17
2023-01-29T22:09:37.734Z,24.73
2023-01-29T22:12:06.327Z,24.07
2023-01-29T22:14:33.271Z,25.83
2023-01-29T22:16:59.982Z,25.03
2023-01-29T22:19:26.544Z,24.37
2023-01-29T22:21:53.322Z,25.37
2023-01-29T22:24:21.034Z,23.30
2023-01-29T22:26:49.391Z,25.37
2023-01-29T22:29:17.238Z,26.23
2023-01-29T22:31:44.360Z,20.20
2023-01-29T22:34:11.810Z,25.23
2023-01-29T22:36:39.065Z,21.57
2023-01-29T22:39:07.813Z,24.57
2023-01-29T22:41:34.492Z,22.07
2023-01-29T22:44:01.295Z,21.67
2023-01-29T22:46:28.020Z,22.97
2023-01-29T22:48:54.699Z,22.93
2023-01-29T22:51:21.304Z,22.07
2023-01-29T22:53:53.559Z,19.80
2023-01-29T22:56:25.244Z,21.00
2023-01-29T22:58:53.571Z,20.13
2023-01-29T23:01:21.566Z,20.37
2023-01-29T23:03:48.393Z,19.80
2023-01-29T23:06:16.405Z,19.50
2023-01-29T23:08:43.018Z,21.40
2023-01-29T23:11:14.827Z,19.27
2023-01-29T23:13:43.911Z,21.93
2023-01-29T23:16:10.772Z,20.50
2023-01-29T23:18:37.859Z,23.43
2023-01-29T23:21:04.822Z,19.53
2023-01-29T23:23:32.479Z,22.13
2023-01-29T23:26:19.107Z,21.53
2023-01-29T23:28:46.227Z,24.63
2023-01-29T23:31:14.865Z,20.90
2023-01-29T23:33:41.498Z,23.93
2023-01-29T23:36:08.634Z,25.23
2023-01-29T23:38:35.295Z,24.23
2023-01-29T23:41:01.810Z,25.73
2023-01-29T23:43:29.426Z,27.13
2023-01-29T23:45:56.412Z,22.77
2023-01-29T23:48:23.681Z,27.43
2023-01-29T23:50:50.393Z,27.73
2023-01-29T23:53:17.638Z,28.27
2023-01-29T23:55:44.545Z,27.57
2023-01-29T23:58:11.087Z,28.23
